大田区羽田空港3丁目のツイート 1km

大田区羽田空港3丁目周辺1kmからツイッターのつぶやきを検索した結果です。検索結果は地図に重ね合わせて表示しています。


検索結果

【非公式】ごんちゃん gon2000sp1

ダークサイド確変中/毎月3日はツイ休日(嘘)/R50システムエンジニア/似非東京人(愛媛から単身赴任中)/ANAダイアモンドから陥落/JC娘あり。戸籍上はもう1人いるけど勘当した/Fsaker/阪神/ポニーテール党/納豆は食い物に非ず/キュアムーンライト/業者・自己啓発系お断り、フォロ、リムもご自由に。でもブロックする

I'm at 第2ターミナル in 大田区, 東京都

2018-11-20 07:10

気象うさぎ:大田 mgn_ota

東京都大田区の気温や警報/注意報などをグラフ付きでつぶやくロボットです。全国にいます。気象庁情報。(管理人: @mitdok )

【07:00時点 11.4℃】
13.0~11.1℃
=東京都大田区 #ota #大田

2018-11-20 07:09

RJTT METAR rjtt_metar

Haneda, Tokyo Int'l Airport

RJTT 192200Z 04015KT 9999 FEW010 BKN050 11/06 Q1018 NOSIG

2018-11-20 07:08

MAEDA Yojiro maedayojiro

家業の青果仲卸業をやってます。

I'm at 東京国際空港 / 羽田空港 in 大田区, 東京都

2018-11-20 07:01

hktts@ダイヤ修行 ktts1001

東京歴11年目中国人出張族、2018年6月SFC解脱、行き先は🇸🇬🇭🇰🇰🇷🇨🇳台湾 あたり、出張で飛行機乗るときに適当に発信します。

今年最後の国内線フライト、一応これでダイヤになれるはず。
#ANA

2018-11-20 06:56

レイチェル(佐藤洋平) raychel_walker

高円寺ニャンダラーズ Play Loud Liberation Music!

Hey Ho Let’s Go〜。 場所: ANA 東京(羽田)空港 - Tokyo(Haneda) Airport

2018-11-20 06:56

Hidmar/MO hidmar_Ngnl

理工管理 dur142nd BBQセトリ作成中。

I'm at 第1ターミナル in 大田区, 東京都

2018-11-20 06:56

たわし sei_tawashi0184

ふとももランド\\\└('ω')┘//// HCR32と🇫🇷ぷじょー106 ふぉろー大体気づかないので一声掛けてくださると嬉しみ

I'm at 東京国際空港 / 羽田空港 in 大田区, 東京都

2018-11-20 06:51

hasshi hasshi_twr

Yes, I am here

Do I where to go? ( like Paul Gauguin) 場所: ANA 東京(羽田)空港 - Tokyo(Haneda) Airport

2018-11-20 06:45

RJTT METAR rjtt_metar

Haneda, Tokyo Int'l Airport

RJTT 192130Z 04015KT 9999 FEW010 BKN050 12/08 Q1017 NOSIG RMK 1ST010 7SC050 A3005

2018-11-20 06:41

Jin Jin51218146

人生楽しくてしょうがない/元看護師・現外資系企業勤務/英語勉強中/ルールは壊していく派/米国での職探し中(シンガポール、香港、上海でも可)/彼女大好き結婚したい/看護師の転職相談のるよ〜

丸亀がやってなくて、700円のかけそばを食べたよ・・・

早くうどんの自販機置いてよ・・・

2018-11-20 06:30

RJTT METAR rjtt_metar

Haneda, Tokyo Int'l Airport

RJTT 192100Z 04011KT 9999 FEW015 BKN060 12/09 Q1017 NOSIG RMK 1CU015 7SC060 A3004

2018-11-20 06:21

amds 羽田 amds_hanedaToky

羽田の気温をつぶやきます。気象庁のアメダスのページから約30分遅れで更新されます。

羽田(東京都) 6:00の 気温 11.5℃ 北東の風,5.8m/s

2018-11-20 06:20

ワダ街ック天国~(^o^ゞ soften_fields

横須賀生・湘南在住(第二の故郷は小樽)、都内勤務のリーマンですf(^_^; 日々の出来事をつぶやいてます❗無言フォローをお許しください❗️ランチ/飲み/旅行/JAL/美術館鑑賞/ご朱印/観光名所/サザンオールスターズ(応援団員)/桑田佳祐/横浜ベイスターズ/ヤクルトスワローズ/イベント等

おはよーございます‼️
今日はここからスタートします‼️✈️

2018-11-20 06:16

マカナイ mcni_1

阪神タイガース(#17#29#33#94) 斉藤朱夏さん(@Saito_Shuka #しゅかランド)

I'm at 東京国際空港 / 羽田空港 in 大田区, 東京都

2018-11-20 06:12

9ma_bot

たまにお絵描きする猛獣。 果南・花陽推し、中の人はあんちゃんすわわシカちゃん推しのつーりすと。愛車はG310GS。 イラストの無断使用、転載は×。

寒い寒い (@ 第2ターミナル in 大田区, 東京都)

2018-11-20 06:11

Gangstaおじさん Fujimon420

Gangsta 4 Life...

I'm at Tokyo (Haneda) International Airport in 大田区, 東京都

2018-11-20 06:10

れげえおじさん Raggamuffin420

アニメ・ゲーム・Reggaeを こよなく愛する関西人。DJ(Selector), DTMをやっています。Life Is One Time! Follow Mi Please! 情報収集用アカウントも運用中 @Raggamuffin420_

I'm at 東京国際空港 / 羽田空港 in 大田区, 東京都

2018-11-20 06:09

気象うさぎ:大田 mgn_ota

東京都大田区の気温や警報/注意報などをグラフ付きでつぶやくロボットです。全国にいます。気象庁情報。(管理人: @mitdok )

【06:00時点 11.5℃】
13.0~11.2℃
=東京都大田区 #ota #大田

2018-11-20 06:09

ただっしー✈︎次は台湾🥟🥟🥟 wander_tadassy

3連休なら海外旅行、土日だけでも海外旅行、スキあらば海外旅行。海外からの月曜エクストリーム出社は当たり前。エアアジア最上級会員BLACK。月一以上海外を旅するダメリーマン・バックパッカー

桃のCAが爆速誘導してくれたおかげで、搭乗開始から10分で全員着席完了。すげー

2018-11-20 06:08

RJTT METAR rjtt_metar

Haneda, Tokyo Int'l Airport

RJTT 192030Z 04012KT 9999 FEW020 BKN060 11/08 Q1016 NOSIG RMK 1CU020 7SC060 A3003

2018-11-20 06:05

shu55 shu55

I'm at Tokyo (Haneda) International Airport in 大田区, 東京都

2018-11-20 06:00

hide hidek11

おはようございます。
羽田空港です。熊本日帰出張行って来ます!

2018-11-20 05:56

ひーちゃん hiichaaan1

嘘と本当に囲まれ 逃げ出す事もままならないまま 必死にヘラヘラしている◾︎ renofa#7 ◾︎ reds#10 ◾︎ verdy#17 ◾︎ vortis#31 ◾︎ verdy#38 ◾︎※番号順

I'm at 東京国際空港 / 羽田空港 in 大田区, 東京都

2018-11-20 05:53

成瀬鈴音@奈央(Aqours最高!) naruse2525

成人済/アニメ/ラノベ/マンガ/音ゲー/元アニメ業界人/声優/バンドリ/デレステ/スクフェス/百合/麻雀/にこ、曜推し/▲聖地巡礼、珍スポット、心スポ巡り/プロデューサー、ラブライバーやってます▲埋没mtf

I'm at 搭乗口8 in 大田区, 東京都

2018-11-20 05:35

amds 羽田 amds_hanedaToky

羽田の気温をつぶやきます。気象庁のアメダスのページから約30分遅れで更新されます。

羽田(東京都) 5:00の 気温 11.6℃ 北北東の風,7.3m/s

2018-11-20 05:20

RJTT METAR rjtt_metar

Haneda, Tokyo Int'l Airport

RJTT 192000Z 02014KT 9999 FEW020 BKN060 12/07 Q1016 NOSIG RMK 1CU020 7SC060 A3001

2018-11-20 05:20

成瀬鈴音@奈央(Aqours最高!) naruse2525

成人済/アニメ/ラノベ/マンガ/音ゲー/元アニメ業界人/声優/バンドリ/デレステ/スクフェス/百合/麻雀/にこ、曜推し/▲聖地巡礼、珍スポット、心スポ巡り/プロデューサー、ラブライバーやってます▲埋没mtf

I'm at ローソン 羽田空港第一ターミナルサウス店 - @akiko_lawson in Ōta, 東京都

2018-11-20 05:18

ikepanda ikepanda

落語・お酒・鉄・馬・プロ格・お散歩など。お気軽に〜♪

着陸。 (@ 東京国際空港 / 羽田空港 in 大田区, 東京都)

2018-11-20 05:18

気象うさぎ:大田 mgn_ota

東京都大田区の気温や警報/注意報などをグラフ付きでつぶやくロボットです。全国にいます。気象庁情報。(管理人: @mitdok )

【05:00時点 11.6℃】
13.0~11.5℃
=東京都大田区 #ota #大田

2018-11-20 05:09

RJTT METAR rjtt_metar

Haneda, Tokyo Int'l Airport

RJTT 191930Z 02013KT 9999 -RA FEW020 BKN050 12/06 Q1015 NOSIG RMK 1CU020 7SC050 A2999

2018-11-20 05:05

Tomoko dumbreck_fan

精神年齢Young Driver AMR

I'm at 東京国際空港 / 羽田空港 in 大田区, 東京都

2018-11-20 04:52

RJTT METAR rjtt_metar

Haneda, Tokyo Int'l Airport

RJTT 191900Z 36015KT 9999 FEW020 BKN050 12/06 Q1015 NOSIG RMK 1CU020 7SC050 A2998

2018-11-20 04:20

amds 羽田 amds_hanedaToky

羽田の気温をつぶやきます。気象庁のアメダスのページから約30分遅れで更新されます。

羽田(東京都) 4:00の 気温 12.4℃ 降水量 0.5mm 北の風,7.7m/s

2018-11-20 04:20

気象うさぎ:大田 mgn_ota

東京都大田区の気温や警報/注意報などをグラフ付きでつぶやくロボットです。全国にいます。気象庁情報。(管理人: @mitdok )

【04:00時点 12.4℃】
13.0~12.2℃
=東京都大田区 #ota #大田

2018-11-20 04:09

RJTT METAR rjtt_metar

Haneda, Tokyo Int'l Airport

RJTT 191830Z 01015KT 9999 FEW020 BKN050 13/06 Q1015 NOSIG RMK 1CU020 7SC050 A2997

2018-11-20 04:05

RJTT METAR rjtt_metar

Haneda, Tokyo Int'l Airport

RJTT 191800Z 34013KT 9999 FEW020 BKN050 13/06 Q1014 NOSIG RMK 1CU020 7SC050 A2996

2018-11-20 03:20

amds 羽田 amds_hanedaToky

羽田の気温をつぶやきます。気象庁のアメダスのページから約30分遅れで更新されます。

羽田(東京都) 3:00の 気温 12.5℃ 北北西の風,6.7m/s

2018-11-20 03:20

気象うさぎ:大田 mgn_ota

東京都大田区の気温や警報/注意報などをグラフ付きでつぶやくロボットです。全国にいます。気象庁情報。(管理人: @mitdok )

【03:00時点 12.5℃】
13.0~12.2℃
=東京都大田区 #ota #大田

2018-11-20 03:09

RJTT METAR rjtt_metar

Haneda, Tokyo Int'l Airport

RJTT 191730Z 34016KT 9999 VCSH BKN050 13/05 Q1014 NOSIG RMK 7SC050 A2995

2018-11-20 03:05

RJTT METAR rjtt_metar

Haneda, Tokyo Int'l Airport

RJTT 191700Z 34012KT 9999 -RA BKN050 13/07 Q1014 NOSIG RMK 7SC050 A2996

2018-11-20 02:21

amds 羽田 amds_hanedaToky

羽田の気温をつぶやきます。気象庁のアメダスのページから約30分遅れで更新されます。

羽田(東京都) 2:00の 気温 12.8℃ 北北西の風,6.1m/s

2018-11-20 02:20

気象うさぎ:大田 mgn_ota

東京都大田区の気温や警報/注意報などをグラフ付きでつぶやくロボットです。全国にいます。気象庁情報。(管理人: @mitdok )

【02:00時点 12.8℃】
13.0~12.2℃
=東京都大田区 #ota #大田

2018-11-20 02:09

RJTT METAR rjtt_metar

Haneda, Tokyo Int'l Airport

RJTT 191630Z 33011KT 9999 VCSH FEW025 BKN050 13/07 Q1014 NOSIG RMK 1CU025 7SC050 A2996

2018-11-20 02:06

RJTT METAR rjtt_metar

Haneda, Tokyo Int'l Airport

RJTT 191600Z 34011KT 9999 -SHRA FEW025 BKN045 BKN050 13/08 Q1014 NOSIG RMK 1CU025 6CU045 7SC050 A2996

2018-11-20 01:20

amds 羽田 amds_hanedaToky

羽田の気温をつぶやきます。気象庁のアメダスのページから約30分遅れで更新されます。

羽田(東京都) 1:00の 気温 12.6℃ 北北西の風,5.9m/s

2018-11-20 01:20

気象うさぎ:大田 mgn_ota

東京都大田区の気温や警報/注意報などをグラフ付きでつぶやくロボットです。全国にいます。気象庁情報。(管理人: @mitdok )

【01:00時点 12.6℃】
13.0~12.4℃
=東京都大田区 #ota #大田

2018-11-20 01:11

RJTT METAR rjtt_metar

Haneda, Tokyo Int'l Airport

RJTT 191530Z 35010KT 9999 -SHRA FEW025 BKN045 13/09 Q1014 NOSIG RMK 1CU025 7CU045 A2997

2018-11-20 01:05

RJTT METAR rjtt_metar

Haneda, Tokyo Int'l Airport

RJTT 191500Z 36012KT 9999 -SHRA BKN045 13/09 Q1014 NOSIG

2018-11-20 00:20

amds 羽田 amds_hanedaToky

羽田の気温をつぶやきます。気象庁のアメダスのページから約30分遅れで更新されます。

羽田(東京都) 24:00の 気温 12.9℃ 降水量 0.5mm 北の風,6.1m/s

2018-11-20 00:20

気象うさぎ:大田 mgn_ota

東京都大田区の気温や警報/注意報などをグラフ付きでつぶやくロボットです。全国にいます。気象庁情報。(管理人: @mitdok )

【24:00時点 12.9℃】
15.7~12.2℃
=東京都大田区 #ota #大田

2018-11-20 00:11

RJTT METAR rjtt_metar

Haneda, Tokyo Int'l Airport

RJTT 191430Z 01013KT 8000 -SHRA FEW025 SCT030 BKN035 13/10 Q1015 NOSIG

2018-11-20 00:05

ユージン@Aqours 4th現地両日, AFASG gunnersforlife

Concert & Event Enthusiast, Photographer, Arsenal FC fan. ラブライブ | μ's | Aqours | 西木野真姫| 渡辺曜 | 黒雪姫 | シンフォギア | SCANDAL | 紗千香三澤 | 青葉モカ

Thank you, Aqours for the awesome lives in Tokyo Dome.
It was a memorable concert worth flying to Japan!
Back to Si…

2018-11-20 00:05

めぐっぺ megpe

ビールは私たちの翼

夜行で帰ります (@ Tokyo (Haneda) International Airport in 大田区, 東京都)

2018-11-19 23:57

Miho_S eroticdragon

Creating vector art & graphics. Loves Travel. Ingress Agent. Always listening heavy rocks, electronic beats while awake.

I'm at 東京国際空港 / 羽田空港 in 大田区, 東京都

2018-11-19 23:37

きゃのん Ca_7M

ラーメン二郎/旅/Kawasaki/UNion

終電余裕で良かった😂 (@ 東京国際空港 / 羽田空港 in 大田区, 東京都)

2018-11-19 23:30

迷りん@りんちゃんしか好きくない may_jin86

佐々木りんがちゅきぴ💕

I'm at 東京国際空港 / 羽田空港 in 大田区, 東京都

2018-11-19 23:28

RJTT METAR rjtt_metar

Haneda, Tokyo Int'l Airport

RJTT 191400Z 01017KT 8000 -RA FEW008 BKN025 BKN040 12/11 Q1015 NOSIG

2018-11-19 23:21

amds 羽田 amds_hanedaToky

羽田の気温をつぶやきます。気象庁のアメダスのページから約30分遅れで更新されます。

羽田(東京都) 23:00の 気温 12.4℃ 降水量 2.5mm 北北東の風,8.9m/s

2018-11-19 23:20

イカナゴ教授 ikanagon

ジャパニーズフラスタヤクザ

I'm at 東京国際空港 / 羽田空港 in 大田区, 東京都

2018-11-19 23:13

やすお Yatyuko

格ゲー好き。PSN:yatyuko。突発性奈々病の重度末期患者(2014.2~)。S.C. NANA NET。LiSAっ子。FF14 Garuda鯖 Yasuo Canon。アイコン絵:さばみそ画伯(@abas_6101)作です。感謝。

ただいま;;;; (@ 東京国際空港 / 羽田空港 in 大田区, 東京都)

2018-11-19 23:13

気象うさぎ:大田 mgn_ota

東京都大田区の気温や警報/注意報などをグラフ付きでつぶやくロボットです。全国にいます。気象庁情報。(管理人: @mitdok )

【23:00時点 12.4℃】
15.7~12.4℃
=東京都大田区 #ota #大田

2018-11-19 23:12

RJTT METAR rjtt_metar

Haneda, Tokyo Int'l Airport

RJTT 191330Z 36017KT 8000 -RA FEW008 SCT014 BKN020 13/12 Q1014 TEMPO FEW008 BKN012

2018-11-19 23:06

V2 morderwal

いちばん好きな言葉は
「クレイジーストロング」

I'm at 羽田空港国内線ターミナル駅 in 大田区, 東京都

2018-11-19 22:43

hugkiss hugkiss

DJ/Anime/Ecchi_game/ 流行りもStudyも要点チェックでOK/ 巡巡 #メグリ 巡巡

I'm at 東京国際空港 / 羽田空港 in 大田区, 東京都

2018-11-19 22:42

RJTT METAR rjtt_metar

Haneda, Tokyo Int'l Airport

RJTT 191318Z 33008KT 7000 -RA FEW008 BKN020 BKN060 13/12 Q1014 RMK 1ST008 5CU020 7SC060 A2996

2018-11-19 22:32

Hiroki Uematsu/ひろっきゅ hiroki_u

web, social network, geo location service, music, and more

帰ってきてしまった (@ Tokyo (Haneda) International Airport in 大田区, 東京都)

2018-11-19 22:31

秋の光の魚の焼菓子 sanmarucake

一日中PCの前に座って時々ポチポチっとしたり以下略@六本木
のべつまくなし

着。フライトレーダー見ながら来たけど、この時間でもバンバン着陸してんだな。さすが羽田 (@ 東京国際空港 / 羽田空港 in 大田区, 東京都)

2018-11-19 22:24

Junichi Suzuki Suite

鈴木淳一

冬 @ 東京国際空港 / 羽田空港 (Tokyo International Airport) (HND)

2018-11-19 22:21

amds 羽田 amds_hanedaToky

羽田の気温をつぶやきます。気象庁のアメダスのページから約30分遅れで更新されます。

羽田(東京都) 22:00の 気温 12.9℃ 降水量 1.5mm 北西の風,4.5m/s

2018-11-19 22:20

RJTT METAR rjtt_metar

Haneda, Tokyo Int'l Airport

RJTT 191300Z (cont.) RMK 1ST008 4CU020 7SC060 A2994 MOD TURB OBS AT 1248Z 10NM N COLOR BTN 13000FT AND 10000FT IN DES BY B763

2018-11-19 22:20

RJTT METAR rjtt_metar

Haneda, Tokyo Int'l Airport

RJTT 191300Z 32009KT 8000 RA FEW008 SCT020 BKN060 13/11 Q1014 NOSIG (cont.)

2018-11-19 22:20

気象うさぎ:大田 mgn_ota

東京都大田区の気温や警報/注意報などをグラフ付きでつぶやくロボットです。全国にいます。気象庁情報。(管理人: @mitdok )

【22:00時点 12.9℃】
15.7~12.5℃
=東京都大田区 #ota #大田

2018-11-19 22:11

RJTT METAR rjtt_metar

Haneda, Tokyo Int'l Airport

RJTT 191230Z (cont.) RMK 1ST008 3CU030 8AS070 A2995 MOD TURB OBS AT 1217Z OVER COLOR 11000FT BY B772

2018-11-19 22:05

RJTT METAR rjtt_metar

Haneda, Tokyo Int'l Airport

RJTT 191230Z 29008KT 9000 -RA FEW008 SCT030 OVC070 14/11 Q1014 NOSIG (cont.)

2018-11-19 22:05

ポルターカイストa.k.a. DJ CRZDMZ shirokunieda

オーディオと酒と#カイ釈義 MigmaShelterのリコーダー担当 プロフ絵は春野さ子画伯

I'm at 東京国際空港 / 羽田空港 in 大田区, 東京都

2018-11-19 21:52

きんぐないと kkingknight

元シューター/ゲーム/アニメ/ホルン:paxman M23/吹奏楽/管弦楽/uec09/TFB/connecting/おもすい/IGNIS/針の音楽/ガルパン吹/風呂桶/KPOP/IU/写真/X-T20/GX7mk2/instagram:kyun_horn

そば食って帰る (@ つきじ庵 in 大田区, 東京都)

2018-11-19 21:49

KITE ✈︎ kite787ngo

I'm at 東京国際空港 / 羽田空港 in 大田区, 東京都

2018-11-19 21:44

きっやや@11/17-19沖縄 kyouya3102

沖縄から上京したJKツイッタラー
 

よく寝れた (@ 東京国際空港 / 羽田空港 in 大田区, 東京都)

2018-11-19 21:41

じんげっと@次はカテドラルで歌う(12/21) cantate_singet

フリーランスの歌うデヴ(CT/Ten/HighBar)/odv、alius、白高/演奏団体の支援/台場のレフティボウラー(ハイスコア290)/セグウェイ修行中(つくば、昭和記念、森林公園、セントレア、柏の葉、函館大沼、おきなわワールド、バンナの森、海老名)/ANA-SFCホルダー

前回は追い抜き事案が発生したから、要警戒 (@ 15番バスのりば in Ōta, Tōkyō-to)

2018-11-19 21:30

Tasuku Kajiwara tasuku_kajiwara

『女子よりの男子』フォルダと良く言われますが、立派な成人男性です。 FC東京LOVE

I'm at 東京国際空港 / 羽田空港 in 大田区, 東京都

2018-11-19 21:27

やま(M・Y) yama_ym

久しぶりにTwitter復活しました。
趣味は鉄道旅行、野球観戦(楽天ファン)、バイク、サイクリング、ダイビング。
大阪生まれの和歌山育ち、♂です。

ベンツ、カッチョいいー!
買うお金はないけど、運転してみたいなー。

#hnd
#羽田空港
#ベンツ 場所: ANA 東京(羽田)空港 - Tokyo(Haneda) Airport

2018-11-19 21:22

RJTT METAR rjtt_metar

Haneda, Tokyo Int'l Airport

RJTT 191200Z (cont.) RMK 1ST008 6SC050 8AS080 A2995 MOD TURB OBS AT 1155Z 10NM SW ADDUM BTN 12000FT AND 10000FT IN DES BY B738

2018-11-19 21:20

RJTT METAR rjtt_metar

Haneda, Tokyo Int'l Airport

RJTT 191200Z 31006KT 7000 -RA FEW008 BKN050 OVC080 14/13 Q1014 NOSIG (cont.)

2018-11-19 21:20

amds 羽田 amds_hanedaToky

羽田の気温をつぶやきます。気象庁のアメダスのページから約30分遅れで更新されます。

羽田(東京都) 21:00の 気温 14.4℃ 降水量 1mm 北西の風,3m/s

2018-11-19 21:20

じんげっと@次はカテドラルで歌う(12/21) cantate_singet

フリーランスの歌うデヴ(CT/Ten/HighBar)/odv、alius、白高/演奏団体の支援/台場のレフティボウラー(ハイスコア290)/セグウェイ修行中(つくば、昭和記念、森林公園、セントレア、柏の葉、函館大沼、おきなわワールド、バンナの森、海老名)/ANA-SFCホルダー

うー、トイレトイレ! (@ 到着ロビー in 大田区, 東京都)

2018-11-19 21:18

だーと@プレセントをありがとう Dah_to

ゆかりんおめでとう!

I'm at 東京国際空港 / 羽田空港 in 大田区, 東京都

2018-11-19 21:17

だ っ ち JA01HD

またどうぞ ミルクの大地へ

I'm at 東京国際空港 / 羽田空港 in 大田区, 東京都

2018-11-19 21:15

じんげっと@次はカテドラルで歌う(12/21) cantate_singet

フリーランスの歌うデヴ(CT/Ten/HighBar)/odv、alius、白高/演奏団体の支援/台場のレフティボウラー(ハイスコア290)/セグウェイ修行中(つくば、昭和記念、森林公園、セントレア、柏の葉、函館大沼、おきなわワールド、バンナの森、海老名)/ANA-SFCホルダー

着陸! (@ 第2ターミナル in 大田区, 東京都)

2018-11-19 21:11

気象うさぎ:大田 mgn_ota

東京都大田区の気温や警報/注意報などをグラフ付きでつぶやくロボットです。全国にいます。気象庁情報。(管理人: @mitdok )

【21:00時点 14.4℃】
15.7~12.5℃
=東京都大田区 #ota #大田

2018-11-19 21:11

みのほどしらず MINO_T_H

通りすがりのDDRerだ、覚えておけっ!ポケモンとイナイレシリーズが好きです。旅は自分自身そのもの、DDR行脚こそが僕のホームゲーセンです。エリアブラウザの真の世界制覇を成し遂げDDR史上No. 1行脚erになりました。リズム、燃やすぜ!!

日本到着

2018-11-19 21:09

‎ Ꭿч੨ണⅈ✟NINTH✟#02福岡🕺 Ayami_v_v_

the GazettE ✩葵厨☮️☆HERESY☆ #九州土下座組合 #九州変態組合✩ノクブラ✩X JAPAN✩GACKT様☆LiSA(* ॑꒳ ॑* )✩本命(*ฅ́˘ฅ̀*)♥りゅうちゃん→Ryuta(@ryuta_drum) りゅうちゃんYouTube▶️

めっちゃ眠い(。-.-。)...zzz

2018-11-19 21:07

RJTT METAR rjtt_metar

Haneda, Tokyo Int'l Airport

RJTT 191130Z 29005KT 270V330 9999 -RA FEW008 BKN050 15/13 Q1014 NOSIG RMK 1ST008 7SC050 A2996

2018-11-19 21:05

やす yskd

サッカー好きの不良会社員でございまする
マジックしたりダンスに手を出したり
寺社仏閣徘徊したり本を読んだりして
すごしています

I'm at 第1ターミナル in 大田区, 東京都

2018-11-19 20:52

ながやま naga_yamas

地方イベが大好き、推しが居るとこどこまでも/出張でイベが消される/OU16卒/録画ガチ勢/鈴木このみさん(次は相模湖?)/西沢幸奏さん(次はツアー追加公演)

おはようございます (@ 東京国際空港 / 羽田空港 in 大田区, 東京都)

2018-11-19 20:29

Ricole Takahashi ricole0704

今日は青組 wi-fiあります♪ (@ 東京国際空港 / 羽田空港 in 大田区, 東京都)

2018-11-19 20:28

Ricole Takahashi ricole0704

I'm at 搭乗口58 in 大田区, 東京都

2018-11-19 20:27

RJTT METAR rjtt_metar

Haneda, Tokyo Int'l Airport

RJTT 191100Z 30003KT 280V360 9999 -RA FEW008 BKN050 15/12 Q1014 NOSIG RMK 1ST008 7SC050 A2997

2018-11-19 20:20

amds 羽田 amds_hanedaToky

羽田の気温をつぶやきます。気象庁のアメダスのページから約30分遅れで更新されます。

羽田(東京都) 20:00の 気温 14.7℃ 西北西の風,1.8m/s

2018-11-19 20:20

右大臣 udaijin_ammr

山崎秋のパン祭り @soratobsakana / 鐵道旅行と街歩きとアイドルとごはん / Viola / Linguistics / 👓 @Rin_Wada
/ 🌈

👋 (@ 東京国際空港 / 羽田空港 in 大田区, 東京都)

2018-11-19 20:15